Wolf Creek, OR

12:19 AM PST on January 22, 2017 (GMT -0800)
Sexton Summit | | Change Station
Active Advisory: Wind Advisory

Elev 3842 ft 42.62 °N, 123.37 °W | Updated 6 minutes ago

Light Snow
Light Snow Mist
32 °F
Feels Like 22 °F
N
13
Wind Variable Wind from ESE
Gusts 28 mph

Today
High -- | Low -- °F
--% Chance of Precip.
Yesterday
High -- | Low -- °F
Precip. -- in
Pressure 29.37 in
Visibility 6.0 miles
Clouds Few 800 ft
Mostly Cloudy 1400 ft
Overcast 2400 ft
Windchill 22 °F
Dew Point 31 °F
Humidity 96%
Rainfall 0.00 in
Snow Depth Not available.
7:36 AM 5:14 PM
Waning Crescent, 28% visible
SPECI KSXT 220813Z AUTO 11011G24KT 070V150 6SM -SN BR FEW008 BKN014 OVC024 00/M01 A2937 RMK AO2 P0000 T00001006
Pressure 29.37 in
Visibility 6.0 miles
Clouds Few 800 ft
Mostly Cloudy 1400 ft
Overcast 2400 ft
Windchill 22 °F
Dew Point 31 °F
Humidity 96%
Rainfall 0.00 in
Snow Depth Not available.
7:36 AM 5:14 PM
Waning Crescent, 28% visible
SPECI KSXT 220813Z AUTO 11011G24KT 070V150 6SM -SN BR FEW008 BKN014 OVC024 00/M01 A2937 RMK AO2 P0000 T00001006

Get Your Daily Forecast Email!

Thanks for signing up!

Be on the lookout for a verification email in your inbox.

You'll start receiving the daily forecast at 8 AM.

×

10-Day Weather Forecast

Almanac

Astronomy

Jan. 22, 2017 Rise Set
Actual Time
Civil Twilight
Nautical Twilight
Astronomical Twilight
Moon
Length of Visible Light
Length of Day
Tomorrow will be .
, % of the Moon is Illuminated

Today's Extremes

State Highs State Lows

Community

WunderPhotos

Upload Photos

1,962,540 photos uploaded!

WunderBlog® & News

Nearby

Air Quality

  Air Quality AQ Index Pollutant
Not available.

Snow Depth

Station Depth Elevation

Earthquake Activity

City Distance Mag. Time & Date
Minimum magnitude displayed is 2.5.

Coastal Water Temperatures

Place Temperature

Stations

Nearby Weather Stations

Station Location Temp. Windchill Dew Point Humidity Wind Precip. Elev Updated Type
                   

Watches & Warnings

Wind Advisory
Issued: 3:44 PM PST Jan. 21, 2017 – National Weather Service

... Wind Advisory in effect from 10 PM this evening to 7 am PST
Sunday...

The National Weather Service in Medford has issued a Wind
Advisory... which is in effect from 10 PM this evening to 7 am PST
Sunday.

* Winds... southeast 25 to 35 mph with gusts up to 50 mph.

* Timing... winds will increase this evening... reaching a peak
overnight before diminishing through the morning.

* Locations include... hilly and mountainous areas between the
coast and Jackson County.

* Impacts... strong winds may make travel difficult on area
roadways... especially for high profile vehicles. Loose and
unsecured objects may lost or damaged. Some minor tree damage
is possible.

Precautionary/preparedness actions...

A Wind Advisory means that winds of 35 mph are expected with
higher gusts possible. Winds this strong can make driving
difficult... especially for high profile vehicles. Use extra
caution.



Btl